Time;durP1;ratioP1;P1;durP2;ratioP2;P2;SDS_P1;SDS_P2;PMS_P1;PMS_P2;Temp;Humidity;BMP_temperature;BMP_pressure;BME280_temperature;BME280_humidity;BME280_pressure;Samples;Min_cycle;Max_cycle;Signal;HPM_P1;HPM_P2
2022/01/11 00:00:41;;;;;;;;;;;;;;;;;;5016365;28;19913;-18
2022/01/11 00:03:07;;;;;;;;;;;;;;;;;;5015111;28;20267;-18
2022/01/11 00:05:38;;;;;;;;;;;;;;;;;;5016728;28;19909;-18
2022/01/11 00:08:07;;;;;;;;;;;;;;;;;;5016219;28;19925;-18
2022/01/11 00:10:45;;;;;;;;;;;;;;;;;;5015193;28;19992;-18
2022/01/11 00:13:11;;;;;;;;;;;;;;;;;;5016145;28;20262;-18
2022/01/11 00:15:37;;;;;;;;;;;;;;;;;;5016340;28;19917;-18
2022/01/11 00:18:03;;;;;;;;;;;;;;;;;;5016059;28;20245;-18
2022/01/11 00:20:29;;;;;;;;;;;;;;;;;;5016022;28;19976;-18
2022/01/11 00:25:27;;;;;;;;;;;;;;;;;;5015940;28;20218;-18
2022/01/11 00:27:53;;;;;;;;;;;;;;;;;;5014875;28;19916;-18
2022/01/11 00:30:20;;;;;;;;;;;;;;;;;;5015818;28;20004;-18
2022/01/11 00:32:51;;;;;;;;;;;;;;;;;;5015737;28;19920;-18
2022/01/11 00:35:21;;;;;;;;;;;;;;;;;;5016034;28;19913;-18
2022/01/11 00:37:47;;;;;;;;;;;;;;;;;;5015737;28;20386;-18
2022/01/11 00:40:13;;;;;;;;;;;;;;;;;;5015601;28;20030;-18
2022/01/11 00:42:39;;;;;;;;;;;;;;;;;;5015879;28;19991;-18
2022/01/11 00:45:05;;;;;;;;;;;;;;;;;;5015886;28;19976;-18
2022/01/11 00:47:31;;;;;;;;;;;;;;;;;;5016024;28;20012;-18
2022/01/11 00:49:57;;;;;;;;;;;;;;;;;;5015105;28;19920;-18
2022/01/11 00:52:23;;;;;;;;;;;;;;;;;;5015404;28;19920;-18
2022/01/11 00:54:49;;;;;;;;;;;;;;;;;;5015978;28;19914;-18
2022/01/11 00:57:15;;;;;;;;;;;;;;;;;;5015379;28;19920;-18
2022/01/11 00:59:41;;;;;;;;;;;;;;;;;;5015634;28;20399;-18
2022/01/11 01:02:07;;;;;;;;;;;;;;;;;;5015301;28;19937;-18
2022/01/11 01:04:33;;;;;;;;;;;;;;;;;;5015146;28;19917;-18
2022/01/11 01:06:59;;;;;;;;;;;;;;;;;;5015183;28;19928;-18
2022/01/11 01:09:31;;;;;;;;;;;;;;;;;;5015861;28;19909;-18
2022/01/11 01:11:58;;;;;;;;;;;;;;;;;;5015238;28;20349;-18
2022/01/11 01:14:23;;;;;;;;;;;;;;;;;;5015773;28;19917;-18
2022/01/11 01:16:49;;;;;;;;;;;;;;;;;;5014189;28;19920;-18
2022/01/11 01:19:15;;;;;;;;;;;;;;;;;;5014198;28;20021;-18
2022/01/11 01:21:41;;;;;;;;;;;;;;;;;;5015119;28;19932;-18
2022/01/11 01:24:07;;;;;;;;;;;;;;;;;;5015141;28;19921;-18
2022/01/11 01:26:33;;;;;;;;;;;;;;;;;;5015565;28;20110;-18
2022/01/11 01:29:00;;;;;;;;;;;;;;;;;;5015072;28;20364;-18
2022/01/11 01:31:26;;;;;;;;;;;;;;;;;;5015323;28;19979;-18
2022/01/11 01:33:52;;;;;;;;;;;;;;;;;;5015008;28;19914;-18
2022/01/11 01:36:18;;;;;;;;;;;;;;;;;;5014969;28;20012;-18
2022/01/11 01:38:44;;;;;;;;;;;;;;;;;;5014981;28;20368;-18
2022/01/11 01:41:15;;;;;;;;;;;;;;;;;;5015030;28;19913;-19
2022/01/11 01:43:41;;;;;;;;;;;;;;;;;;5014835;28;19960;-18
2022/01/11 01:46:07;;;;;;;;;;;;;;;;;;5014884;28;20360;-18
2022/01/11 01:48:35;;;;;;;;;;;;;;;;;;5015155;28;20268;-18
2022/01/11 01:51:01;;;;;;;;;;;;;;;;;;5015072;28;19948;-18
2022/01/11 01:53:27;;;;;;;;;;;;;;;;;;5015017;28;19914;-18
2022/01/11 01:55:53;;;;;;;;;;;;;;;;;;5013890;28;20305;-18
2022/01/11 01:58:20;;;;;;;;;;;;;;;;;;5014837;28;19921;-18
2022/01/11 02:00:51;;;;;;;;;;;;;;;;;;5014841;28;20244;-18
2022/01/11 02:03:17;;;;;;;;;;;;;;;;;;5018578;28;19944;-18
2022/01/11 02:05:43;;;;;;;;;;;;;;;;;;5018473;28;19987;-18
2022/01/11 02:08:09;;;;;;;;;;;;;;;;;;5018504;28;20285;-18
2022/01/11 02:10:36;;;;;;;;;;;;;;;;;;5018462;28;19923;-18
2022/01/11 02:13:02;;;;;;;;;;;;;;;;;;5018347;28;19910;-18
2022/01/11 02:15:28;;;;;;;;;;;;;;;;;;5018624;28;19914;-18
2022/01/11 02:17:54;;;;;;;;;;;;;;;;;;5017380;28;19917;-18
2022/01/11 02:20:20;;;;;;;;;;;;;;;;;;5018803;28;19921;-18
2022/01/11 02:22:46;;;;;;;;;;;;;;;;;;5018405;28;20000;-18
2022/01/11 02:25:12;;;;;;;;;;;;;;;;;;5018288;28;19917;-18
2022/01/11 02:27:38;;;;;;;;;;;;;;;;;;5018350;28;20325;-18
2022/01/11 02:30:04;;;;;;;;;;;;;;;;;;5018113;28;19957;-18
2022/01/11 02:32:30;;;;;;;;;;;;;;;;;;5017927;28;19914;-18
2022/01/11 02:34:56;;;;;;;;;;;;;;;;;;5018311;28;19921;-18
2022/01/11 02:37:22;;;;;;;;;;;;;;;;;;5018207;28;19963;-18
2022/01/11 02:39:48;;;;;;;;;;;;;;;;;;5018076;28;20252;-18
2022/01/11 02:42:15;;;;;;;;;;;;;;;;;;5017805;28;19920;-18
2022/01/11 02:44:41;;;;;;;;;;;;;;;;;;5016818;28;19913;-18
2022/01/11 02:47:06;;;;;;;;;;;;;;;;;;5017949;28;19914;-18
2022/01/11 02:49:33;;;;;;;;;;;;;;;;;;5017783;28;19910;-18
2022/01/11 02:51:58;;;;;;;;;;;;;;;;;;5017577;28;19914;-18
2022/01/11 02:54:24;;;;;;;;;;;;;;;;;;5016639;28;20374;-18
2022/01/11 02:56:51;;;;;;;;;;;;;;;;;;5017547;28;20363;-18
2022/01/11 02:59:17;;;;;;;;;;;;;;;;;;5018077;28;19910;-18
2022/01/11 03:01:43;;;;;;;;;;;;;;;;;;5017687;28;19960;-18
2022/01/11 03:04:09;;;;;;;;;;;;;;;;;;5017320;28;19925;-18
2022/01/11 03:06:35;;;;;;;;;;;;;;;;;;5017178;28;19977;-18
2022/01/11 03:09:01;;;;;;;;;;;;;;;;;;5017142;28;19913;-18
2022/01/11 03:11:32;;;;;;;;;;;;;;;;;;5017231;28;19971;-18
2022/01/11 03:13:58;;;;;;;;;;;;;;;;;;5017301;28;20256;-18
2022/01/11 03:16:24;;;;;;;;;;;;;;;;;;5017242;28;20015;-18
2022/01/11 03:18:50;;;;;;;;;;;;;;;;;;5016994;28;19948;-18
2022/01/11 03:21:16;;;;;;;;;;;;;;;;;;5017437;28;20367;-18
2022/01/11 03:23:42;;;;;;;;;;;;;;;;;;5017049;28;19975;-18
2022/01/11 03:26:08;;;;;;;;;;;;;;;;;;5016757;28;19984;-25
2022/01/11 03:28:34;;;;;;;;;;;;;;;;;;5017352;28;19917;-18
2022/01/11 03:31:00;;;;;;;;;;;;;;;;;;5016933;28;19975;-18
2022/01/11 03:33:26;;;;;;;;;;;;;;;;;;5016893;28;19910;-18
2022/01/11 03:35:52;;;;;;;;;;;;;;;;;;5016797;28;20003;-18
2022/01/11 03:38:18;;;;;;;;;;;;;;;;;;5016866;28;20020;-18
2022/01/11 03:40:44;;;;;;;;;;;;;;;;;;5016775;28;19929;-18
2022/01/11 03:43:10;;;;;;;;;;;;;;;;;;5016467;28;19920;-18
2022/01/11 03:45:36;;;;;;;;;;;;;;;;;;5016384;28;20007;-18
2022/01/11 03:48:03;;;;;;;;;;;;;;;;;;5016455;28;19957;-18
2022/01/11 03:50:30;;;;;;;;;;;;;;;;;;5015303;28;19921;-18
2022/01/11 03:53:00;;;;;;;;;;;;;;;;;;5015257;28;20260;-18
2022/01/11 03:56:12;;;;;;;;;;;;;;;;;;5017282;28;19917;-18
2022/01/11 03:58:20;;;;;;;;;;;;;;;;;;5014148;28;19913;-18
2022/01/11 04:00:47;;;;;;;;;;;;;;;;;;5016170;28;20371;-18
2022/01/11 04:03:13;;;;;;;;;;;;;;;;;;5015863;28;19917;-19
2022/01/11 04:05:41;;;;;;;;;;;;;;;;;;5015944;28;20004;-18
2022/01/11 04:08:07;;;;;;;;;;;;;;;;;;5016541;28;20307;-19
2022/01/11 04:10:33;;;;;;;;;;;;;;;;;;5015963;28;19913;-18
2022/01/11 04:12:59;;;;;;;;;;;;;;;;;;5015913;28;19932;-19
2022/01/11 04:15:25;;;;;;;;;;;;;;;;;;5015910;28;19913;-19
2022/01/11 04:17:51;;;;;;;;;;;;;;;;;;5015828;28;19932;-19
2022/01/11 04:20:19;;;;;;;;;;;;;;;;;;5014852;28;19914;-19
2022/01/11 04:22:46;;;;;;;;;;;;;;;;;;5015758;28;19937;-19
2022/01/11 04:25:12;;;;;;;;;;;;;;;;;;5015001;28;19913;-19
2022/01/11 04:27:38;;;;;;;;;;;;;;;;;;5015576;28;19928;-19
2022/01/11 04:30:04;;;;;;;;;;;;;;;;;;5015631;28;20019;-19
2022/01/11 04:32:31;;;;;;;;;;;;;;;;;;5014566;28;19981;-19
2022/01/11 04:34:57;;;;;;;;;;;;;;;;;;5016026;28;19992;-19
2022/01/11 04:37:23;;;;;;;;;;;;;;;;;;5014508;28;20072;-19
2022/01/11 04:39:49;;;;;;;;;;;;;;;;;;5015967;28;20013;-19
2022/01/11 04:42:15;;;;;;;;;;;;;;;;;;5015318;28;19968;-19
2022/01/11 04:44:41;;;;;;;;;;;;;;;;;;5015592;28;19921;-19
2022/01/11 04:47:07;;;;;;;;;;;;;;;;;;5015932;28;19967;-19
2022/01/11 04:49:33;;;;;;;;;;;;;;;;;;5015188;28;19920;-19
2022/01/11 04:51:59;;;;;;;;;;;;;;;;;;5015083;28;20253;-19
2022/01/11 04:54:25;;;;;;;;;;;;;;;;;;5015098;28;20383;-19
2022/01/11 04:56:51;;;;;;;;;;;;;;;;;;5015308;28;19909;-19
2022/01/11 04:59:17;;;;;;;;;;;;;;;;;;5013890;28;19972;-19
2022/01/11 05:01:43;;;;;;;;;;;;;;;;;;5014846;28;19909;-19
2022/01/11 05:04:09;;;;;;;;;;;;;;;;;;5014738;28;20268;-19
2022/01/11 05:06:35;;;;;;;;;;;;;;;;;;5015257;28;19918;-19
2022/01/11 05:09:01;;;;;;;;;;;;;;;;;;5013943;28;20332;-19
2022/01/11 05:11:27;;;;;;;;;;;;;;;;;;5015419;28;19909;-18
2022/01/11 05:13:53;;;;;;;;;;;;;;;;;;5014894;28;19914;-19
2022/01/11 05:16:19;;;;;;;;;;;;;;;;;;5014644;28;19920;-20
2022/01/11 05:18:45;;;;;;;;;;;;;;;;;;5014835;28;19929;-19
2022/01/11 05:21:11;;;;;;;;;;;;;;;;;;5014783;28;20004;-19
2022/01/11 05:23:37;;;;;;;;;;;;;;;;;;5014780;28;19924;-20
2022/01/11 05:26:03;;;;;;;;;;;;;;;;;;5015032;28;20004;-20
2022/01/11 05:28:29;;;;;;;;;;;;;;;;;;5014677;28;20016;-19
2022/01/11 05:30:55;;;;;;;;;;;;;;;;;;5014473;28;19913;-19
2022/01/11 05:33:21;;;;;;;;;;;;;;;;;;5014664;28;19948;-19
2022/01/11 05:35:47;;;;;;;;;;;;;;;;;;5016871;28;19961;-20
2022/01/11 05:38:13;;;;;;;;;;;;;;;;;;5018489;28;19920;-19
2022/01/11 05:40:39;;;;;;;;;;;;;;;;;;5018140;28;20016;-19
2022/01/11 05:43:06;;;;;;;;;;;;;;;;;;5018406;28;19945;-19
2022/01/11 05:45:32;;;;;;;;;;;;;;;;;;5018587;28;20286;-19
2022/01/11 05:47:58;;;;;;;;;;;;;;;;;;5018437;28;19979;-19
2022/01/11 05:50:24;;;;;;;;;;;;;;;;;;5017379;28;20431;-19
2022/01/11 05:52:50;;;;;;;;;;;;;;;;;;5018207;28;19992;-18
2022/01/11 05:55:16;;;;;;;;;;;;;;;;;;5018473;28;19921;-18
2022/01/11 05:57:42;;;;;;;;;;;;;;;;;;5018292;28;19913;-18
2022/01/11 06:00:08;;;;;;;;;;;;;;;;;;5018094;28;19963;-19
2022/01/11 06:02:34;;;;;;;;;;;;;;;;;;5017927;28;19913;-19
2022/01/11 06:05:00;;;;;;;;;;;;;;;;;;5018444;28;20245;-19
2022/01/11 06:07:26;;;;;;;;;;;;;;;;;;5018466;28;19925;-19
2022/01/11 06:09:52;;;;;;;;;;;;;;;;;;5018005;28;20324;-19
2022/01/11 06:12:18;;;;;;;;;;;;;;;;;;5017966;28;19975;-19
2022/01/11 06:14:44;;;;;;;;;;;;;;;;;;5017932;28;20008;-19
2022/01/11 06:17:10;;;;;;;;;;;;;;;;;;5017763;28;19925;-19
2022/01/11 06:19:36;;;;;;;;;;;;;;;;;;5018144;28;20006;-18
2022/01/11 06:22:02;;;;;;;;;;;;;;;;;;5016712;28;19913;-18
2022/01/11 06:24:28;;;;;;;;;;;;;;;;;;5016574;28;19924;-19
2022/01/11 06:26:54;;;;;;;;;;;;;;;;;;5016497;28;19972;-18
2022/01/11 06:29:20;;;;;;;;;;;;;;;;;;5017812;28;19910;-20
2022/01/11 06:31:46;;;;;;;;;;;;;;;;;;5017467;28;19971;-19
2022/01/11 06:34:12;;;;;;;;;;;;;;;;;;5017256;28;19919;-18
2022/01/11 06:36:38;;;;;;;;;;;;;;;;;;5017518;28;19909;-19
2022/01/11 06:39:04;;;;;;;;;;;;;;;;;;5017407;28;19968;-20
2022/01/11 06:41:30;;;;;;;;;;;;;;;;;;5017925;28;19948;-19
2022/01/11 06:43:56;;;;;;;;;;;;;;;;;;5017721;28;19972;-19
2022/01/11 06:46:23;;;;;;;;;;;;;;;;;;5016497;28;20233;-19
2022/01/11 06:48:50;;;;;;;;;;;;;;;;;;5017146;28;20382;-19
2022/01/11 06:51:16;;;;;;;;;;;;;;;;;;5017150;28;20064;-19
2022/01/11 06:53:42;;;;;;;;;;;;;;;;;;5017151;28;19920;-20
2022/01/11 06:56:08;;;;;;;;;;;;;;;;;;5017600;28;19924;-19
2022/01/11 06:58:34;;;;;;;;;;;;;;;;;;5016032;28;20031;-20
2022/01/11 07:01:00;;;;;;;;;;;;;;;;;;5017176;28;20072;-20
2022/01/11 07:03:28;;;;;;;;;;;;;;;;;;5017062;28;19917;-20
2022/01/11 07:05:54;;;;;;;;;;;;;;;;;;5016608;28;19921;-20
2022/01/11 07:08:20;;;;;;;;;;;;;;;;;;5017190;28;19923;-19
2022/01/11 07:10:46;;;;;;;;;;;;;;;;;;5016923;28;19917;-19
2022/01/11 07:13:12;;;;;;;;;;;;;;;;;;5016567;28;19909;-20
2022/01/11 07:15:38;;;;;;;;;;;;;;;;;;5016425;28;19917;-20
2022/01/11 07:18:09;;;;;;;;;;;;;;;;;;5016319;28;20012;-19
2022/01/11 07:20:35;;;;;;;;;;;;;;;;;;5015209;28;19910;-20
2022/01/11 07:23:01;;;;;;;;;;;;;;;;;;5016258;28;19919;-20
2022/01/11 07:25:30;;;;;;;;;;;;;;;;;;5015122;28;20272;-19
2022/01/11 07:27:56;;;;;;;;;;;;;;;;;;5016330;28;20303;-19
2022/01/11 07:30:22;;;;;;;;;;;;;;;;;;5016374;28;19913;-27
2022/01/11 07:32:48;;;;;;;;;;;;;;;;;;5016021;28;20268;-20
2022/01/11 07:35:15;;;;;;;;;;;;;;;;;;5015928;28;19917;-19
2022/01/11 07:37:41;;;;;;;;;;;;;;;;;;5015117;28;19937;-19
2022/01/11 07:40:07;;;;;;;;;;;;;;;;;;5016646;28;19917;-18
2022/01/11 07:42:33;;;;;;;;;;;;;;;;;;5015224;28;19921;-18
2022/01/11 07:44:59;;;;;;;;;;;;;;;;;;5016288;28;19913;-19
2022/01/11 07:47:25;;;;;;;;;;;;;;;;;;5016316;28;19936;-19
2022/01/11 07:49:52;;;;;;;;;;;;;;;;;;5016698;28;20309;-19
2022/01/11 07:52:18;;;;;;;;;;;;;;;;;;5016245;28;20344;-19
2022/01/11 07:54:44;;;;;;;;;;;;;;;;;;5016146;28;19976;-19
2022/01/11 07:57:10;;;;;;;;;;;;;;;;;;5016451;28;19916;-19
2022/01/11 07:59:36;;;;;;;;;;;;;;;;;;5014963;28;20248;-19
2022/01/11 08:02:03;;;;;;;;;;;;;;;;;;5016513;28;20333;-19
2022/01/11 08:04:30;;;;;;;;;;;;;;;;;;5015823;28;20359;-18
2022/01/11 08:06:56;;;;;;;;;;;;;;;;;;5016122;28;20284;-19
2022/01/11 08:09:22;;;;;;;;;;;;;;;;;;5016410;28;20043;-20
2022/01/11 08:11:50;;;;;;;;;;;;;;;;;;5015978;28;20346;-19
2022/01/11 08:14:16;;;;;;;;;;;;;;;;;;5015691;28;19921;-19
2022/01/11 08:16:42;;;;;;;;;;;;;;;;;;5016163;28;19964;-20
2022/01/11 08:19:08;;;;;;;;;;;;;;;;;;5015587;28;19913;-19
2022/01/11 08:21:34;;;;;;;;;;;;;;;;;;5015719;28;19917;-19
2022/01/11 08:24:00;;;;;;;;;;;;;;;;;;5015655;28;19923;-19
2022/01/11 08:26:26;;;;;;;;;;;;;;;;;;5015412;28;20009;-20
2022/01/11 08:28:53;;;;;;;;;;;;;;;;;;5015533;28;19925;-19
2022/01/11 08:31:20;;;;;;;;;;;;;;;;;;5015566;28;19909;-20
2022/01/11 08:33:46;;;;;;;;;;;;;;;;;;5015349;28;19968;-19
2022/01/11 08:36:13;;;;;;;;;;;;;;;;;;5015312;28;19925;-20
2022/01/11 08:38:39;;;;;;;;;;;;;;;;;;5015859;28;19949;-19
2022/01/11 08:41:05;;;;;;;;;;;;;;;;;;5015770;28;20012;-20
2022/01/11 08:43:31;;;;;;;;;;;;;;;;;;5013742;28;20268;-19
2022/01/11 08:45:57;;;;;;;;;;;;;;;;;;5015259;28;19913;-19
2022/01/11 08:48:23;;;;;;;;;;;;;;;;;;5015027;28;20242;-20
2022/01/11 08:50:55;;;;;;;;;;;;;;;;;;5015145;28;19948;-20
2022/01/11 08:53:23;;;;;;;;;;;;;;;;;;5015196;28;19909;-19
2022/01/11 08:55:49;;;;;;;;;;;;;;;;;;5014891;28;20297;-18
2022/01/11 08:58:15;;;;;;;;;;;;;;;;;;5014858;28;19940;-19
2022/01/11 09:00:42;;;;;;;;;;;;;;;;;;5014793;28;19968;-19
2022/01/11 09:03:11;;;;;;;;;;;;;;;;;;5014604;28;20352;-19
2022/01/11 09:05:38;;;;;;;;;;;;;;;;;;5014689;28;19980;-19
2022/01/11 09:10:56;;;;;;;;;;;;;;;;;;5014584;28;19979;-19
2022/01/11 09:13:25;;;;;;;;;;;;;;;;;;5014773;28;19913;-18
2022/01/11 09:15:52;;;;;;;;;;;;;;;;;;5014663;28;19917;-18
2022/01/11 09:18:19;;;;;;;;;;;;;;;;;;5015143;28;19910;-18
2022/01/11 09:26:53;;;;;;;;;;;;;;;;;;5014862;28;19928;-19
2022/01/11 09:32:07;;;;;;;;;;;;;;;;;;5014646;28;19925;-20
2022/01/11 09:34:37;;;;;;;;;;;;;;;;;;5014571;28;20348;-20
2022/01/11 09:37:03;;;;;;;;;;;;;;;;;;5013435;28;19964;-31
2022/01/11 09:39:29;;;;;;;;;;;;;;;;;;5014576;28;20360;-20
2022/01/11 09:41:58;;;;;;;;;;;;;;;;;;5014188;28;19932;-20
2022/01/11 09:44:27;;;;;;;;;;;;;;;;;;5013672;28;19914;-21
2022/01/11 09:46:53;;;;;;;;;;;;;;;;;;5013463;28;19984;-19
2022/01/11 09:49:20;;;;;;;;;;;;;;;;;;5013256;28;19923;-19
2022/01/11 09:51:48;;;;;;;;;;;;;;;;;;5014032;28;19922;-18
2022/01/11 09:54:14;;;;;;;;;;;;;;;;;;5014716;28;20008;-18
2022/01/11 09:56:41;;;;;;;;;;;;;;;;;;5014035;28;19913;-19
2022/01/11 09:59:10;;;;;;;;;;;;;;;;;;5014153;28;19967;-20
2022/01/11 10:01:36;;;;;;;;;;;;;;;;;;5014072;28;20248;-20
2022/01/11 10:04:04;;;;;;;;;;;;;;;;;;5013765;28;19917;-20
2022/01/11 10:06:31;;;;;;;;;;;;;;;;;;5014004;28;19922;-19
2022/01/11 10:08:57;;;;;;;;;;;;;;;;;;5012852;28;19914;-18
2022/01/11 10:11:25;;;;;;;;;;;;;;;;;;5012887;28;20244;-20
2022/01/11 10:13:51;;;;;;;;;;;;;;;;;;5013896;28;19924;-19
2022/01/11 10:16:17;;;;;;;;;;;;;;;;;;5013950;28;19913;-19
2022/01/11 10:18:45;;;;;;;;;;;;;;;;;;5012894;28;19910;-19
2022/01/11 10:21:11;;;;;;;;;;;;;;;;;;5013691;28;19968;-20
2022/01/11 10:23:38;;;;;;;;;;;;;;;;;;5016964;28;19909;-20
2022/01/11 10:26:04;;;;;;;;;;;;;;;;;;5017676;28;20012;-20
2022/01/11 10:28:30;;;;;;;;;;;;;;;;;;5016147;28;20226;-20
2022/01/11 10:30:57;;;;;;;;;;;;;;;;;;5017643;28;20020;-19
2022/01/11 10:33:23;;;;;;;;;;;;;;;;;;5016948;28;20260;-20
2022/01/11 10:35:49;;;;;;;;;;;;;;;;;;5017435;28;19913;-19
2022/01/11 10:38:18;;;;;;;;;;;;;;;;;;5017281;28;20237;-19
2022/01/11 10:40:44;;;;;;;;;;;;;;;;;;5017611;28;20264;-19
2022/01/11 10:43:11;;;;;;;;;;;;;;;;;;5017568;28;19921;-19
2022/01/11 10:45:37;;;;;;;;;;;;;;;;;;5017234;28;19914;-18
2022/01/11 10:48:04;;;;;;;;;;;;;;;;;;5016203;28;20008;-19
2022/01/11 10:50:34;;;;;;;;;;;;;;;;;;5017208;28;19913;-19
2022/01/11 10:53:02;;;;;;;;;;;;;;;;;;5017264;28;19909;-19
2022/01/11 10:55:29;;;;;;;;;;;;;;;;;;5016995;28;19944;-19
2022/01/11 10:57:55;;;;;;;;;;;;;;;;;;5017374;28;20309;-20
2022/01/11 11:00:22;;;;;;;;;;;;;;;;;;5016921;28;19914;-19
2022/01/11 11:02:49;;;;;;;;;;;;;;;;;;5016931;28;19980;-19
2022/01/11 11:05:23;;;;;;;;;;;;;;;;;;5017003;28;20352;-19
2022/01/11 11:07:49;;;;;;;;;;;;;;;;;;5016086;28;20260;-19
2022/01/11 11:10:17;;;;;;;;;;;;;;;;;;5017075;28;20355;-19
2022/01/11 11:12:44;;;;;;;;;;;;;;;;;;5017045;28;19948;-20
2022/01/11 11:15:10;;;;;;;;;;;;;;;;;;5017568;28;19910;-19
2022/01/11 11:17:36;;;;;;;;;;;;;;;;;;5017225;28;20356;-21
2022/01/11 11:20:03;;;;;;;;;;;;;;;;;;5016766;28;19910;-20
2022/01/11 11:22:29;;;;;;;;;;;;;;;;;;5015725;28;20002;-20
2022/01/11 11:24:57;;;;;;;;;;;;;;;;;;5016724;28;19917;-20
2022/01/11 11:27:24;;;;;;;;;;;;;;;;;;5016691;28;19918;-19
2022/01/11 11:29:51;;;;;;;;;;;;;;;;;;5017277;28;20001;-19
2022/01/11 11:32:19;;;;;;;;;;;;;;;;;;5016492;28;19924;-19
2022/01/11 11:34:45;;;;;;;;;;;;;;;;;;5016790;28;19979;-20
2022/01/11 11:37:14;;;;;;;;;;;;;;;;;;5016407;28;19960;-19
2022/01/11 11:39:46;;;;;;;;;;;;;;;;;;5015328;28;19976;-19
2022/01/11 11:42:12;;;;;;;;;;;;;;;;;;5015258;28;19909;-20
2022/01/11 11:44:43;;;;;;;;;;;;;;;;;;5016174;28;20020;-20
2022/01/11 11:47:11;;;;;;;;;;;;;;;;;;5015847;28;19918;-18
2022/01/11 11:49:38;;;;;;;;;;;;;;;;;;5016005;28;19913;-19
2022/01/11 11:52:04;;;;;;;;;;;;;;;;;;5016127;28;19913;-19
2022/01/11 11:54:30;;;;;;;;;;;;;;;;;;5016130;28;19920;-20
2022/01/11 11:56:57;;;;;;;;;;;;;;;;;;5016311;28;19921;-19
2022/01/11 11:59:25;;;;;;;;;;;;;;;;;;5014624;28;19975;-20
2022/01/11 12:01:58;;;;;;;;;;;;;;;;;;5016004;28;19920;-19
2022/01/11 12:04:27;;;;;;;;;;;;;;;;;;5013949;28;19983;-19
2022/01/11 12:06:55;;;;;;;;;;;;;;;;;;5015129;28;19959;-20
2022/01/11 12:09:22;;;;;;;;;;;;;;;;;;5014997;28;19956;-21
2022/01/11 12:11:49;;;;;;;;;;;;;;;;;;5015060;28;20234;-19
2022/01/11 12:14:17;;;;;;;;;;;;;;;;;;5015448;28;20202;-20
2022/01/11 12:16:44;;;;;;;;;;;;;;;;;;5015222;28;20001;-20
2022/01/11 12:19:10;;;;;;;;;;;;;;;;;;5014929;28;20016;-20
2022/01/11 12:21:36;;;;;;;;;;;;;;;;;;5014908;28;19920;-20
2022/01/11 12:24:05;;;;;;;;;;;;;;;;;;5015060;28;19917;-20
2022/01/11 12:26:34;;;;;;;;;;;;;;;;;;5014829;28;20260;-19
2022/01/11 12:29:00;;;;;;;;;;;;;;;;;;5015284;28;19992;-20
2022/01/11 12:31:28;;;;;;;;;;;;;;;;;;5014806;28;19932;-18
2022/01/11 12:33:54;;;;;;;;;;;;;;;;;;5013746;28;20078;-20
2022/01/11 12:36:23;;;;;;;;;;;;;;;;;;5014611;28;19992;-19
2022/01/11 12:38:52;;;;;;;;;;;;;;;;;;5015231;28;20012;-19
2022/01/11 12:41:18;;;;;;;;;;;;;;;;;;5015232;28;19913;-19
2022/01/11 12:43:49;;;;;;;;;;;;;;;;;;5015283;28;19913;-19
2022/01/11 12:46:19;;;;;;;;;;;;;;;;;;5013461;28;19983;-20
2022/01/11 12:48:47;;;;;;;;;;;;;;;;;;5015334;28;20352;-19
2022/01/11 12:51:14;;;;;;;;;;;;;;;;;;5015122;28;20020;-19
2022/01/11 12:53:40;;;;;;;;;;;;;;;;;;5015732;28;19952;-19
2022/01/11 12:56:07;;;;;;;;;;;;;;;;;;5015232;28;19940;-19
2022/01/11 12:58:33;;;;;;;;;;;;;;;;;;5015164;28;19909;-19
2022/01/11 13:00:59;;;;;;;;;;;;;;;;;;5015477;28;19932;-20
2022/01/11 13:03:28;;;;;;;;;;;;;;;;;;5014402;28;19917;-20
2022/01/11 13:05:54;;;;;;;;;;;;;;;;;;5015124;28;19933;-19
2022/01/11 13:08:20;;;;;;;;;;;;;;;;;;5014957;28;19913;-18
2022/01/11 13:10:48;;;;;;;;;;;;;;;;;;5013804;28;19913;-19
2022/01/11 13:13:17;;;;;;;;;;;;;;;;;;5015025;28;19909;-20
2022/01/11 13:15:44;;;;;;;;;;;;;;;;;;5014745;28;20340;-19
2022/01/11 13:18:12;;;;;;;;;;;;;;;;;;5014702;28;19917;-19
2022/01/11 13:20:41;;;;;;;;;;;;;;;;;;5015087;28;20015;-19
2022/01/11 13:23:17;;;;;;;;;;;;;;;;;;5014427;28;20018;-20
2022/01/11 13:25:43;;;;;;;;;;;;;;;;;;5014734;28;19936;-21
2022/01/11 13:28:09;;;;;;;;;;;;;;;;;;5013631;28;20360;-19
2022/01/11 13:30:35;;;;;;;;;;;;;;;;;;5014976;28;20004;-20
2022/01/11 13:33:03;;;;;;;;;;;;;;;;;;5014633;28;19914;-19
2022/01/11 13:35:29;;;;;;;;;;;;;;;;;;5014484;28;20300;-19
2022/01/11 13:37:55;;;;;;;;;;;;;;;;;;5014734;28;20020;-20
2022/01/11 13:40:21;;;;;;;;;;;;;;;;;;5013337;28;19913;-19
2022/01/11 13:42:47;;;;;;;;;;;;;;;;;;5014646;28;19937;-19
2022/01/11 13:45:15;;;;;;;;;;;;;;;;;;5014394;28;19914;-18
2022/01/11 13:47:41;;;;;;;;;;;;;;;;;;5014337;28;19914;-18
2022/01/11 13:50:07;;;;;;;;;;;;;;;;;;5013276;28;20000;-18
2022/01/11 13:52:35;;;;;;;;;;;;;;;;;;5014302;28;19910;-18
2022/01/11 13:55:01;;;;;;;;;;;;;;;;;;5014328;28;20360;-18
2022/01/11 13:57:32;;;;;;;;;;;;;;;;;;5017399;28;19963;-19
2022/01/11 13:59:59;;;;;;;;;;;;;;;;;;5016819;28;20268;-18
2022/01/11 14:02:26;;;;;;;;;;;;;;;;;;5018092;28;19913;-19
2022/01/11 14:04:52;;;;;;;;;;;;;;;;;;5018420;28;19924;-19
2022/01/11 14:07:20;;;;;;;;;;;;;;;;;;5018744;28;19925;-18
2022/01/11 14:09:51;;;;;;;;;;;;;;;;;;5018242;28;19964;-19
2022/01/11 14:12:27;;;;;;;;;;;;;;;;;;5018279;28;20260;-19
2022/01/11 14:14:53;;;;;;;;;;;;;;;;;;5019081;28;19919;-19
2022/01/11 14:17:19;;;;;;;;;;;;;;;;;;5018066;28;19955;-20
2022/01/11 14:19:46;;;;;;;;;;;;;;;;;;5016930;28;20287;-20
2022/01/11 14:22:13;;;;;;;;;;;;;;;;;;5017923;28;20363;-20
2022/01/11 14:24:39;;;;;;;;;;;;;;;;;;5018557;28;19914;-20
2022/01/11 14:27:06;;;;;;;;;;;;;;;;;;5017984;28;19980;-19
2022/01/11 14:29:34;;;;;;;;;;;;;;;;;;5018398;28;19914;-20
2022/01/11 14:32:02;;;;;;;;;;;;;;;;;;5017771;28;19914;-20
2022/01/11 14:34:29;;;;;;;;;;;;;;;;;;5018204;28;19956;-20
2022/01/11 14:36:56;;;;;;;;;;;;;;;;;;5017866;28;19914;-19
2022/01/11 14:39:22;;;;;;;;;;;;;;;;;;5018232;28;19921;-19
2022/01/11 14:41:49;;;;;;;;;;;;;;;;;;5017650;28;19917;-19
2022/01/11 14:44:17;;;;;;;;;;;;;;;;;;5018261;28;19917;-20
2022/01/11 14:46:44;;;;;;;;;;;;;;;;;;5017402;28;19917;-19
2022/01/11 14:49:11;;;;;;;;;;;;;;;;;;5017607;28;19921;-20
2022/01/11 14:51:38;;;;;;;;;;;;;;;;;;5018052;28;19987;-20
2022/01/11 14:54:07;;;;;;;;;;;;;;;;;;5017195;28;19918;-19
2022/01/11 14:56:33;;;;;;;;;;;;;;;;;;5017317;28;20013;-19
2022/01/11 14:59:01;;;;;;;;;;;;;;;;;;5016205;28;19914;-19
2022/01/11 15:01:30;;;;;;;;;;;;;;;;;;5017317;28;19941;-19
2022/01/11 15:03:57;;;;;;;;;;;;;;;;;;5016001;28;19995;-20
2022/01/11 15:06:23;;;;;;;;;;;;;;;;;;5017002;28;19921;-19
2022/01/11 15:08:51;;;;;;;;;;;;;;;;;;5016613;28;19913;-19
2022/01/11 15:11:19;;;;;;;;;;;;;;;;;;5017149;28;19920;-19
2022/01/11 15:13:45;;;;;;;;;;;;;;;;;;5016909;28;20395;-18
2022/01/11 15:16:13;;;;;;;;;;;;;;;;;;5017015;28;19910;-19
2022/01/11 15:18:41;;;;;;;;;;;;;;;;;;5016893;28;20312;-19
2022/01/11 15:21:08;;;;;;;;;;;;;;;;;;5016689;28;20015;-20
2022/01/11 15:23:35;;;;;;;;;;;;;;;;;;5016481;28;20004;-19
2022/01/11 15:26:03;;;;;;;;;;;;;;;;;;5017060;28;19988;-18
2022/01/11 15:28:29;;;;;;;;;;;;;;;;;;5016941;28;20221;-19
2022/01/11 15:30:56;;;;;;;;;;;;;;;;;;5016695;28;20357;-19
2022/01/11 15:33:22;;;;;;;;;;;;;;;;;;5016430;28;19996;-19
2022/01/11 15:35:49;;;;;;;;;;;;;;;;;;5015610;28;19913;-18
2022/01/11 15:38:15;;;;;;;;;;;;;;;;;;5015503;28;20008;-19
2022/01/11 15:40:41;;;;;;;;;;;;;;;;;;5016703;28;20265;-19
2022/01/11 15:43:09;;;;;;;;;;;;;;;;;;5016546;28;19910;-18
2022/01/11 15:45:36;;;;;;;;;;;;;;;;;;5016420;28;19921;-19
2022/01/11 15:48:02;;;;;;;;;;;;;;;;;;5016795;28;19928;-19
2022/01/11 15:50:30;;;;;;;;;;;;;;;;;;5016071;28;19913;-19
2022/01/11 15:52:56;;;;;;;;;;;;;;;;;;5016034;28;19909;-19
2022/01/11 15:55:22;;;;;;;;;;;;;;;;;;5016013;28;19975;-19
2022/01/11 15:57:50;;;;;;;;;;;;;;;;;;5015712;28;19924;-19
2022/01/11 16:00:16;;;;;;;;;;;;;;;;;;5015699;28;19924;-19
2022/01/11 16:02:43;;;;;;;;;;;;;;;;;;5015399;28;19909;-18
2022/01/11 16:05:09;;;;;;;;;;;;;;;;;;5014709;28;19917;-19
2022/01/11 16:07:35;;;;;;;;;;;;;;;;;;5015551;28;20012;-18
2022/01/11 16:10:02;;;;;;;;;;;;;;;;;;5015556;28;19913;-19
2022/01/11 16:12:30;;;;;;;;;;;;;;;;;;5015648;28;19985;-20
2022/01/11 16:14:58;;;;;;;;;;;;;;;;;;5015343;28;19920;-20
2022/01/11 16:17:25;;;;;;;;;;;;;;;;;;5015246;28;20388;-20
2022/01/11 16:19:51;;;;;;;;;;;;;;;;;;5015063;28;19935;-20
2022/01/11 16:22:18;;;;;;;;;;;;;;;;;;5015733;28;19987;-20
2022/01/11 16:24:46;;;;;;;;;;;;;;;;;;5015551;28;20008;-20
2022/01/11 16:27:12;;;;;;;;;;;;;;;;;;5015596;28;20271;-19
2022/01/11 16:29:38;;;;;;;;;;;;;;;;;;5015960;28;19913;-19
2022/01/11 16:32:06;;;;;;;;;;;;;;;;;;5015752;28;20278;-19
2022/01/11 16:34:32;;;;;;;;;;;;;;;;;;5016009;28;20059;-19
2022/01/11 16:36:59;;;;;;;;;;;;;;;;;;5015470;28;20384;-19
2022/01/11 16:40:07;;;;;;;;;;;;;;;;;;5015426;28;19925;-18
2022/01/11 16:45:03;;;;;;;;;;;;;;;;;;5015517;28;19924;-19
2022/01/11 16:47:29;;;;;;;;;;;;;;;;;;5015152;28;19925;-23
2022/01/11 16:49:55;;;;;;;;;;;;;;;;;;5015399;28;19929;-20
2022/01/11 16:52:22;;;;;;;;;;;;;;;;;;5015558;28;19921;-19
2022/01/11 16:54:50;;;;;;;;;;;;;;;;;;5015279;28;19953;-19
2022/01/11 16:57:16;;;;;;;;;;;;;;;;;;5015678;28;19909;-19
2022/01/11 16:59:44;;;;;;;;;;;;;;;;;;5015469;28;20234;-20